Aérodrome :
LOGIN :

S'inscrire | Disclaimer

   EN    FR    IT 

 










Légende :    VFR   VFR Marginal   IFR   IFR Intensif   IFR Très Intensif
Visi : 
Plafond : 
>= 8 km
>= 3000ft
5 à 8 km
1000 à 3000 ft
1500m à 5 km
500 à 1000 ft
800 à 1500m
200 à 500 ft
< 800m
< 200 ft
Symboles :   Orages  Brouillard  Fortes neiges  Fortes précipitations  Vent > 20 kt
SIGMETs :   Divers  Orages  Givrage  Turbulence  Onde Orograph.  Cendres Volcan.






- Altitude de l'aérodrome : 184 ft
- Code IATA : BRU


EBBR - Bruxelles

DERNIER METAR :
  • 260450Z 31015KT 9999 SCT012 BKN036 10/09 Q0998 NOSIG

METARs EXPIRÉS :
  • 260420Z 30015KT 9999 -RA SCT018 BKN037 11/09 Q0997 NOSIG
  • 260350Z 29015KT 9999 SCT008 BKN009 11/09 Q0997 NOSIG
  • 260320Z 29016KT 9999 -RA BKN010 10/09 Q0997 RESHRA NOSIG
  • 260250Z 30017KT 8000 -SHRA SCT007 BKN016TCU 11/09 Q0997 TEMPO 30022G35KT
  • 260220Z 29019KT 8000 SHRA SCT008 BKN012TCU 11/09 Q0996 TEMPO 27022G40KT
  • 260150Z 29020KT 8000 SHRA SCT008 BKN012TCU 11/09 Q0996 TEMPO 27022G40KT

TAF TAF EBBR
Valide du 26 à 00h jusqu'au 27 à 06h UTC


252320Z 2600/2706 26020G32KT 9999 BKN020
PROB40
TEMPO 2600/2612 3800 SHRA SCT006 BKN012CB
BECMG 2603/2605 28012KT
PROB30
TEMPO 2612/2621 4000 SHRA SCT009 BKN013CB
PROB40
TEMPO 2621/2706 3800 RA SHRA SCT007 BKN012CB
TEMPO 2701/2706 BKN007
BECMG 2704/2706 33016G28KT



MET'MAP, la Météo Aéronautique d'un coup d'oeil ! - Copyright ORBIFLY Décembre 2007 - Disclaimer

ORBIFLY MET'MAP TEAM :

Programmation & Développement : Alexandra Zaïnal
Sur une idée originale de : Baudouin d'Aumeries
Assistance à la programmation : Marc-Olivier Méhu
Soutien technique & logistique : Manuel Goepfert

Contact : metmap@orbifly.com




SOURCES & CREDITS :

   NOAA